Ханты-Мансийск

Карта отелей и гостиниц, располагающихся рядом с аэропортом Ханты-Мансийск :

Ханты-Мансийск Ханты-Мансийский автономный округ - Югра 61° 1' 42.6" N, 69° 5' 11.2812" E
Код аэродрома ИКАО
USHH
Код аэродрома RU
УСХХ
Координаты
N61.02850° E069.08647°
Превышение над уровнем моря
42
Основная полоса
06/24
Курс магнитный
057,9/237,9
Длина основной ВПП
2800
Ширина основной ВПП
45
Покрытие основной ВПП
Твёрдое
Освещение ВПП
Постоянное
Тип: 
Аэродром
Класс аэродрома: 
Международный
Принадлежность: 
ГА
Статус: 
Действующий
Страна: 
Россия
Регион: 
Ханты-Мансийский автономный округ - Югра
Дополнительная информация: 
Оператор: ? Нкр.=(600)м. ДПРМ:707-"BD/ZJ", БПРМ:345-"B/Z".
Погода: 

Авиационная погода в Ханты-Мансийске

Регион: 
Погода METAR: 
USHH 241700Z 00000MPS CAVOK M01/M05 Q1007 R06/010060 NOSIG
Время наблюдения
2021-10-24T17:00:00Z
Температура C
-1.0
Точка росы
-5.0
Направление ветра
0
Скорость ветра (узлы)
0
Метео видимость
6.21
Явления погоды
Условия полета
VFR
Аэропорт подробнее: 

Найти трансфер

С помощью этой формы Вы можете найти трансфер из аэропорта Ханты-Мансийск в город, аэропорт или вокзал:

Карта места

Javascript is required to view this map.

Погода в аэропортах:

Авиационная погода в Синопе

Регион: 
Погода METAR: 
LTCM 241650Z 32008KT 210V360 7000 -SHRA SCT015 BKN025 BKN070 13/11 Q1026
Время наблюдения
2021-10-24T16:50:00Z
Температура C
13.0
Точка росы
11.0
Направление ветра
320
Скорость ветра (узлы)
8
Метео видимость
4.35
Явления погоды
-SHRA
Условия полета
MVFR

Авиационная погода в аэропорту Байкал

Регион: 
Погода METAR: 
UIUU 241700Z 00000MPS 4600 FU FEW043 M03/M04 Q1019 R26/CLRD60 NOSIG RMK QFE720/0960
Время наблюдения
2021-10-24T17:00:00Z
Температура C
-3.0
Точка росы
-4.0
Направление ветра
0
Скорость ветра (узлы)
0
Метео видимость
2.86
Явления погоды
FU
Условия полета
IFR
Аэропорт подробнее: 

Авиационная погода в Воронеже

Регион: 
Погода METAR: 
UUOO 241700Z 33008MPS 9000 -SHRA BKN010 OVC///CB 03/01 Q1020 R30/290155 NOSIG RMK QFE752
Время наблюдения
2021-10-24T17:00:00Z
Температура C
3.0
Точка росы
1.0
Направление ветра
330
Скорость ветра (узлы)
16
Метео видимость
5.59
Явления погоды
-SHRA
Условия полета
MVFR
Аэропорт подробнее: 

Авиационная погода в Рощино

Регион: 
Погода METAR: 
USTR 241500Z 14006MPS 3200 -SHRA BR SCT007 OVC015CB 06/06 Q1004 R21/290060 R30/290060 TEMPO 3100 -SHRA BR BKN003 BKN016CB
Время наблюдения
2021-10-24T15:00:00Z
Температура C
6.0
Точка росы
6.0
Направление ветра
140
Скорость ветра (узлы)
12
Метео видимость
1.99
Явления погоды
-SHRA BR
Условия полета
IFR
Аэропорт подробнее: